sensor_id;sensor_type;location;lat;lon;timestamp;pressure;altitude;pressure_sealevel;temperature;humidity
75551;BME280;65071;53.082;18.218;2023-09-18T00:02:09;101345.66;;;16.34;81.04
75551;BME280;65071;53.082;18.218;2023-09-18T00:04:35;101345.95;;;16.30;81.04
75551;BME280;65071;53.082;18.218;2023-09-18T00:07:02;101347.05;;;16.25;80.80
75551;BME280;65071;53.082;18.218;2023-09-18T00:09:28;101346.73;;;16.21;80.78
75551;BME280;65071;53.082;18.218;2023-09-18T00:11:55;101344.90;;;16.19;80.81
75551;BME280;65071;53.082;18.218;2023-09-18T00:14:21;101344.57;;;16.15;80.77
75551;BME280;65071;53.082;18.218;2023-09-18T00:16:47;101347.70;;;16.12;81.01
75551;BME280;65071;53.082;18.218;2023-09-18T00:19:14;101347.86;;;16.07;80.98
75551;BME280;65071;53.082;18.218;2023-09-18T00:21:41;101346.07;;;16.04;80.86
75551;BME280;65071;53.082;18.218;2023-09-18T00:24:07;101346.75;;;16.01;80.88
75551;BME280;65071;53.082;18.218;2023-09-18T00:26:34;101342.44;;;15.98;80.92
75551;BME280;65071;53.082;18.218;2023-09-18T00:29:01;101343.06;;;15.94;80.88
75551;BME280;65071;53.082;18.218;2023-09-18T00:31:27;101340.77;;;15.89;80.91
75551;BME280;65071;53.082;18.218;2023-09-18T00:33:53;101336.61;;;15.84;80.91
75551;BME280;65071;53.082;18.218;2023-09-18T00:36:19;101336.65;;;15.81;80.89
75551;BME280;65071;53.082;18.218;2023-09-18T00:38:45;101333.66;;;15.77;80.94
75551;BME280;65071;53.082;18.218;2023-09-18T00:41:13;101332.04;;;15.74;80.91
75551;BME280;65071;53.082;18.218;2023-09-18T00:43:39;101331.76;;;15.70;81.02
75551;BME280;65071;53.082;18.218;2023-09-18T00:46:06;101328.02;;;15.65;81.23
75551;BME280;65071;53.082;18.218;2023-09-18T00:48:32;101326.09;;;15.59;81.44
75551;BME280;65071;53.082;18.218;2023-09-18T00:50:58;101323.80;;;15.56;81.29
75551;BME280;65071;53.082;18.218;2023-09-18T00:53:25;101323.14;;;15.53;81.36
75551;BME280;65071;53.082;18.218;2023-09-18T00:55:56;101316.45;;;15.52;81.62
75551;BME280;65071;53.082;18.218;2023-09-18T00:58:24;101317.30;;;15.49;81.48
75551;BME280;65071;53.082;18.218;2023-09-18T01:00:51;101319.15;;;15.45;81.41
75551;BME280;65071;53.082;18.218;2023-09-18T01:03:19;101320.84;;;15.43;81.46
75551;BME280;65071;53.082;18.218;2023-09-18T01:05:47;101320.00;;;15.41;81.56
75551;BME280;65071;53.082;18.218;2023-09-18T01:08:13;101315.09;;;15.38;81.49
75551;BME280;65071;53.082;18.218;2023-09-18T01:11:05;101317.67;;;15.36;81.53
75551;BME280;65071;53.082;18.218;2023-09-18T01:13:44;101314.39;;;15.31;81.49
75551;BME280;65071;53.082;18.218;2023-09-18T01:19:02;101309.49;;;15.26;81.68
75551;BME280;65071;53.082;18.218;2023-09-18T01:21:29;101313.50;;;15.21;81.78
75551;BME280;65071;53.082;18.218;2023-09-18T01:23:56;101314.59;;;15.16;81.77
75551;BME280;65071;53.082;18.218;2023-09-18T01:26:22;101309.41;;;15.12;82.06
75551;BME280;65071;53.082;18.218;2023-09-18T01:28:48;101308.49;;;15.09;81.88
75551;BME280;65071;53.082;18.218;2023-09-18T01:31:14;101313.02;;;15.08;81.90
75551;BME280;65071;53.082;18.218;2023-09-18T01:33:43;101309.54;;;15.05;81.82
75551;BME280;65071;53.082;18.218;2023-09-18T01:36:14;101313.62;;;15.02;81.64
75551;BME280;65071;53.082;18.218;2023-09-18T01:38:42;101312.25;;;15.00;81.77
75551;BME280;65071;53.082;18.218;2023-09-18T01:41:09;101310.55;;;14.95;82.02
75551;BME280;65071;53.082;18.218;2023-09-18T01:43:36;101314.21;;;14.94;81.90
75551;BME280;65071;53.082;18.218;2023-09-18T01:46:04;101315.02;;;14.91;81.93
75551;BME280;65071;53.082;18.218;2023-09-18T01:48:31;101316.70;;;14.89;81.89
75551;BME280;65071;53.082;18.218;2023-09-18T01:50:59;101316.38;;;14.87;81.87
75551;BME280;65071;53.082;18.218;2023-09-18T01:53:25;101312.94;;;14.84;81.84
75551;BME280;65071;53.082;18.218;2023-09-18T01:55:52;101310.85;;;14.81;81.75
75551;BME280;65071;53.082;18.218;2023-09-18T01:58:18;101307.73;;;14.80;81.80
75551;BME280;65071;53.082;18.218;2023-09-18T02:00:46;101306.89;;;14.80;81.72
75551;BME280;65071;53.082;18.218;2023-09-18T02:03:12;101303.52;;;14.77;81.73
75551;BME280;65071;53.082;18.218;2023-09-18T02:05:39;101301.41;;;14.75;81.66
75551;BME280;65071;53.082;18.218;2023-09-18T02:08:06;101296.93;;;14.73;81.70
75551;BME280;65071;53.082;18.218;2023-09-18T02:10:32;101296.29;;;14.71;81.83
75551;BME280;65071;53.082;18.218;2023-09-18T02:12:59;101297.59;;;14.67;81.88
75551;BME280;65071;53.082;18.218;2023-09-18T02:15:25;101297.56;;;14.64;81.84
75551;BME280;65071;53.082;18.218;2023-09-18T02:17:52;101297.45;;;14.62;81.98
75551;BME280;65071;53.082;18.218;2023-09-18T02:20:18;101298.53;;;14.60;82.06
75551;BME280;65071;53.082;18.218;2023-09-18T02:22:45;101303.91;;;14.59;82.10
75551;BME280;65071;53.082;18.218;2023-09-18T02:27:40;101297.21;;;14.54;82.11
75551;BME280;65071;53.082;18.218;2023-09-18T02:30:07;101298.39;;;14.52;82.03
75551;BME280;65071;53.082;18.218;2023-09-18T02:32:34;101294.21;;;14.49;81.97
75551;BME280;65071;53.082;18.218;2023-09-18T02:35:01;101292.94;;;14.43;82.08
75551;BME280;65071;53.082;18.218;2023-09-18T02:37:27;101292.80;;;14.41;82.03
75551;BME280;65071;53.082;18.218;2023-09-18T02:39:55;101291.41;;;14.39;81.94
75551;BME280;65071;53.082;18.218;2023-09-18T02:42:21;101290.73;;;14.36;82.00
75551;BME280;65071;53.082;18.218;2023-09-18T02:44:47;101285.68;;;14.35;82.10
75551;BME280;65071;53.082;18.218;2023-09-18T02:47:14;101284.17;;;14.34;82.04
75551;BME280;65071;53.082;18.218;2023-09-18T02:49:40;101282.52;;;14.32;82.15
75551;BME280;65071;53.082;18.218;2023-09-18T02:52:08;101284.42;;;14.31;82.12
75551;BME280;65071;53.082;18.218;2023-09-18T02:54:34;101285.45;;;14.30;82.17
75551;BME280;65071;53.082;18.218;2023-09-18T02:57:01;101286.10;;;14.29;82.44
75551;BME280;65071;53.082;18.218;2023-09-18T02:59:27;101286.33;;;14.27;82.32
75551;BME280;65071;53.082;18.218;2023-09-18T03:01:54;101286.08;;;14.24;82.26
75551;BME280;65071;53.082;18.218;2023-09-18T03:04:20;101285.43;;;14.23;82.16
75551;BME280;65071;53.082;18.218;2023-09-18T03:06:46;101288.99;;;14.23;82.43
75551;BME280;65071;53.082;18.218;2023-09-18T03:09:13;101282.73;;;14.20;82.34
75551;BME280;65071;53.082;18.218;2023-09-18T03:11:40;101282.10;;;14.18;82.44
75551;BME280;65071;53.082;18.218;2023-09-18T03:14:06;101278.72;;;14.15;82.39
75551;BME280;65071;53.082;18.218;2023-09-18T03:16:32;101272.23;;;14.13;82.46
75551;BME280;65071;53.082;18.218;2023-09-18T03:18:59;101270.19;;;14.12;82.40
75551;BME280;65071;53.082;18.218;2023-09-18T03:21:26;101267.00;;;14.12;82.69
75551;BME280;65071;53.082;18.218;2023-09-18T03:23:53;101269.20;;;14.12;83.03
75551;BME280;65071;53.082;18.218;2023-09-18T03:26:19;101268.25;;;14.12;83.10
75551;BME280;65071;53.082;18.218;2023-09-18T03:28:46;101267.25;;;14.13;83.21
75551;BME280;65071;53.082;18.218;2023-09-18T03:31:12;101265.17;;;14.12;83.30
75551;BME280;65071;53.082;18.218;2023-09-18T03:33:39;101265.81;;;14.11;83.56
75551;BME280;65071;53.082;18.218;2023-09-18T03:36:05;101262.66;;;14.09;83.28
75551;BME280;65071;53.082;18.218;2023-09-18T03:38:34;101253.35;;;14.08;83.30
75551;BME280;65071;53.082;18.218;2023-09-18T03:41:02;101247.61;;;14.07;83.81
75551;BME280;65071;53.082;18.218;2023-09-18T03:43:29;101244.98;;;14.10;85.05
75551;BME280;65071;53.082;18.218;2023-09-18T03:46:06;101244.06;;;14.11;84.88
75551;BME280;65071;53.082;18.218;2023-09-18T03:48:34;101239.30;;;14.15;87.00
75551;BME280;65071;53.082;18.218;2023-09-18T03:51:04;101236.91;;;14.19;86.32
75551;BME280;65071;53.082;18.218;2023-09-18T03:53:35;101235.61;;;14.19;86.62
75551;BME280;65071;53.082;18.218;2023-09-18T03:56:01;101229.73;;;14.22;86.89
75551;BME280;65071;53.082;18.218;2023-09-18T03:58:27;101219.27;;;14.26;86.76
75551;BME280;65071;53.082;18.218;2023-09-18T04:00:54;101221.14;;;14.31;88.14
75551;BME280;65071;53.082;18.218;2023-09-18T04:03:20;101217.62;;;14.35;88.23
75551;BME280;65071;53.082;18.218;2023-09-18T04:05:47;101215.25;;;14.39;87.28
75551;BME280;65071;53.082;18.218;2023-09-18T04:08:13;101211.66;;;14.41;86.30
75551;BME280;65071;53.082;18.218;2023-09-18T04:10:40;101210.95;;;14.45;86.24
75551;BME280;65071;53.082;18.218;2023-09-18T04:13:06;101210.82;;;14.48;87.03
75551;BME280;65071;53.082;18.218;2023-09-18T04:15:32;101210.27;;;14.51;86.56
75551;BME280;65071;53.082;18.218;2023-09-18T04:17:59;101203.70;;;14.55;88.47
75551;BME280;65071;53.082;18.218;2023-09-18T04:20:25;101199.33;;;14.57;88.93
75551;BME280;65071;53.082;18.218;2023-09-18T04:23:19;101194.83;;;14.58;87.84
75551;BME280;65071;53.082;18.218;2023-09-18T04:25:46;101190.98;;;14.60;87.52
75551;BME280;65071;53.082;18.218;2023-09-18T04:28:13;101193.94;;;14.61;87.17
75551;BME280;65071;53.082;18.218;2023-09-18T04:30:39;101192.45;;;14.64;87.42
75551;BME280;65071;53.082;18.218;2023-09-18T04:33:07;101195.48;;;14.66;87.36
75551;BME280;65071;53.082;18.218;2023-09-18T04:35:33;101194.45;;;14.67;87.97
75551;BME280;65071;53.082;18.218;2023-09-18T04:38:00;101192.12;;;14.68;88.24
75551;BME280;65071;53.082;18.218;2023-09-18T04:40:26;101188.14;;;14.69;86.96
75551;BME280;65071;53.082;18.218;2023-09-18T04:43:01;101186.63;;;14.72;86.84
75551;BME280;65071;53.082;18.218;2023-09-18T04:45:28;101185.21;;;14.75;87.99
75551;BME280;65071;53.082;18.218;2023-09-18T04:47:55;101180.06;;;14.77;87.21
75551;BME280;65071;53.082;18.218;2023-09-18T04:50:22;101178.84;;;14.80;86.74
75551;BME280;65071;53.082;18.218;2023-09-18T04:52:49;101184.13;;;14.84;86.63
75551;BME280;65071;53.082;18.218;2023-09-18T04:55:16;101186.89;;;14.88;87.27
75551;BME280;65071;53.082;18.218;2023-09-18T04:57:43;101188.00;;;14.95;86.69
75551;BME280;65071;53.082;18.218;2023-09-18T05:00:10;101189.15;;;15.01;87.56
75551;BME280;65071;53.082;18.218;2023-09-18T05:02:40;101186.83;;;15.07;87.59
75551;BME280;65071;53.082;18.218;2023-09-18T05:05:07;101189.30;;;15.15;88.55
75551;BME280;65071;53.082;18.218;2023-09-18T05:07:35;101191.48;;;15.23;88.94
75551;BME280;65071;53.082;18.218;2023-09-18T05:10:02;101191.02;;;15.32;88.25
75551;BME280;65071;53.082;18.218;2023-09-18T05:12:30;101197.39;;;15.41;87.65
75551;BME280;65071;53.082;18.218;2023-09-18T05:14:56;101196.73;;;15.50;88.25
75551;BME280;65071;53.082;18.218;2023-09-18T05:17:46;101197.10;;;15.60;88.54
75551;BME280;65071;53.082;18.218;2023-09-18T05:20:16;101193.43;;;15.69;87.85
75551;BME280;65071;53.082;18.218;2023-09-18T05:22:43;101194.28;;;15.79;88.05
75551;BME280;65071;53.082;18.218;2023-09-18T05:25:10;101191.25;;;15.88;87.43
75551;BME280;65071;53.082;18.218;2023-09-18T05:27:37;101185.31;;;15.99;87.01
75551;BME280;65071;53.082;18.218;2023-09-18T05:30:12;101176.54;;;16.07;86.72
75551;BME280;65071;53.082;18.218;2023-09-18T05:32:39;101178.19;;;16.18;86.54
75551;BME280;65071;53.082;18.218;2023-09-18T05:35:06;101180.63;;;16.28;86.14
75551;BME280;65071;53.082;18.218;2023-09-18T05:37:32;101178.13;;;16.37;86.22
75551;BME280;65071;53.082;18.218;2023-09-18T05:42:25;101174.17;;;16.58;85.80
75551;BME280;65071;53.082;18.218;2023-09-18T05:44:52;101171.80;;;16.68;85.57
75551;BME280;65071;53.082;18.218;2023-09-18T05:47:18;101169.59;;;16.78;85.78
75551;BME280;65071;53.082;18.218;2023-09-18T05:49:44;101168.94;;;16.89;85.65
75551;BME280;65071;53.082;18.218;2023-09-18T05:52:11;101164.77;;;17.02;85.24
75551;BME280;65071;53.082;18.218;2023-09-18T05:54:37;101164.63;;;17.17;84.94
75551;BME280;65071;53.082;18.218;2023-09-18T05:57:04;101164.09;;;17.30;84.80
75551;BME280;65071;53.082;18.218;2023-09-18T05:59:30;101163.80;;;17.44;84.53
75551;BME280;65071;53.082;18.218;2023-09-18T06:01:57;101163.55;;;17.60;84.22
75551;BME280;65071;53.082;18.218;2023-09-18T06:04:24;101159.52;;;17.68;83.67
75551;BME280;65071;53.082;18.218;2023-09-18T06:06:50;101159.86;;;17.79;83.64
75551;BME280;65071;53.082;18.218;2023-09-18T06:09:17;101157.77;;;17.91;83.39
75551;BME280;65071;53.082;18.218;2023-09-18T06:11:44;101156.84;;;18.04;82.62
75551;BME280;65071;53.082;18.218;2023-09-18T06:14:11;101159.98;;;18.12;81.51
75551;BME280;65071;53.082;18.218;2023-09-18T06:16:38;101161.70;;;18.18;81.25
75551;BME280;65071;53.082;18.218;2023-09-18T06:19:04;101159.15;;;18.22;80.80
75551;BME280;65071;53.082;18.218;2023-09-18T06:21:30;101161.80;;;18.30;80.31
75551;BME280;65071;53.082;18.218;2023-09-18T06:23:57;101158.72;;;18.37;79.94
75551;BME280;65071;53.082;18.218;2023-09-18T06:26:23;101156.20;;;18.49;79.84
75551;BME280;65071;53.082;18.218;2023-09-18T06:28:50;101150.52;;;18.61;79.58
75551;BME280;65071;53.082;18.218;2023-09-18T06:31:17;101146.66;;;18.80;79.30
75551;BME280;65071;53.082;18.218;2023-09-18T06:33:45;101146.11;;;18.91;78.45
75551;BME280;65071;53.082;18.218;2023-09-18T06:36:13;101141.77;;;18.99;77.73
75551;BME280;65071;53.082;18.218;2023-09-18T06:38:39;101138.64;;;19.01;77.06
75551;BME280;65071;53.082;18.218;2023-09-18T06:41:05;101139.05;;;19.18;77.48
75551;BME280;65071;53.082;18.218;2023-09-18T06:43:32;101137.86;;;19.28;76.44
75551;BME280;65071;53.082;18.218;2023-09-18T06:45:58;101139.25;;;19.42;76.63
75551;BME280;65071;53.082;18.218;2023-09-18T06:48:25;101137.02;;;19.57;76.06
75551;BME280;65071;53.082;18.218;2023-09-18T06:50:51;101134.09;;;19.67;74.81
75551;BME280;65071;53.082;18.218;2023-09-18T06:53:18;101131.27;;;19.83;75.65
75551;BME280;65071;53.082;18.218;2023-09-18T06:55:44;101125.51;;;19.96;74.60
75551;BME280;65071;53.082;18.218;2023-09-18T06:58:11;101122.60;;;20.09;74.31
75551;BME280;65071;53.082;18.218;2023-09-18T07:00:41;101118.42;;;20.25;73.88
75551;BME280;65071;53.082;18.218;2023-09-18T07:03:08;101111.16;;;20.43;74.42
75551;BME280;65071;53.082;18.218;2023-09-18T07:05:35;101110.02;;;20.60;74.40
75551;BME280;65071;53.082;18.218;2023-09-18T07:08:02;101108.92;;;20.73;72.73
75551;BME280;65071;53.082;18.218;2023-09-18T07:10:28;101108.88;;;20.83;71.09
75551;BME280;65071;53.082;18.218;2023-09-18T07:12:55;101103.66;;;20.90;70.41
75551;BME280;65071;53.082;18.218;2023-09-18T07:15:22;101105.68;;;21.02;70.98
75551;BME280;65071;53.082;18.218;2023-09-18T07:17:48;101101.20;;;21.18;71.76
75551;BME280;65071;53.082;18.218;2023-09-18T07:20:14;101098.71;;;21.34;71.16
75551;BME280;65071;53.082;18.218;2023-09-18T07:22:46;101095.05;;;21.46;69.27
75551;BME280;65071;53.082;18.218;2023-09-18T07:25:16;101100.40;;;21.56;69.45
75551;BME280;65071;53.082;18.218;2023-09-18T07:27:43;101101.89;;;21.64;70.05
75551;BME280;65071;53.082;18.218;2023-09-18T07:30:14;101101.52;;;21.73;70.14
75551;BME280;65071;53.082;18.218;2023-09-18T07:32:45;101098.02;;;21.83;69.24
75551;BME280;65071;53.082;18.218;2023-09-18T07:35:12;101097.70;;;21.94;69.03
75551;BME280;65071;53.082;18.218;2023-09-18T07:37:41;101096.17;;;22.05;69.05
75551;BME280;65071;53.082;18.218;2023-09-18T07:40:07;101095.32;;;22.13;68.84
75551;BME280;65071;53.082;18.218;2023-09-18T07:42:34;101095.66;;;22.17;68.80
75551;BME280;65071;53.082;18.218;2023-09-18T07:45:01;101098.02;;;22.30;68.66
75551;BME280;65071;53.082;18.218;2023-09-18T07:47:28;101092.16;;;22.39;68.10
75551;BME280;65071;53.082;18.218;2023-09-18T07:49:56;101088.42;;;22.51;68.89
75551;BME280;65071;53.082;18.218;2023-09-18T07:52:23;101091.21;;;22.60;67.85
75551;BME280;65071;53.082;18.218;2023-09-18T07:54:49;101092.41;;;22.72;67.90
75551;BME280;65071;53.082;18.218;2023-09-18T07:57:16;101087.54;;;22.76;66.67
75551;BME280;65071;53.082;18.218;2023-09-18T07:59:43;101089.17;;;22.79;65.73
75551;BME280;65071;53.082;18.218;2023-09-18T08:02:10;101082.95;;;22.93;66.59
75551;BME280;65071;53.082;18.218;2023-09-18T08:04:36;101080.27;;;22.99;65.76
75551;BME280;65071;53.082;18.218;2023-09-18T08:07:04;101080.54;;;23.06;65.02
75551;BME280;65071;53.082;18.218;2023-09-18T08:09:33;101080.45;;;23.19;64.58
75551;BME280;65071;53.082;18.218;2023-09-18T08:12:03;101080.70;;;23.28;63.09
75551;BME280;65071;53.082;18.218;2023-09-18T08:14:29;101079.83;;;23.41;64.03
75551;BME280;65071;53.082;18.218;2023-09-18T08:17:00;101082.39;;;23.57;64.89
75551;BME280;65071;53.082;18.218;2023-09-18T08:19:26;101074.00;;;23.71;63.90
75551;BME280;65071;53.082;18.218;2023-09-18T08:21:53;101071.65;;;23.85;62.81
75551;BME280;65071;53.082;18.218;2023-09-18T08:24:20;101068.48;;;24.00;60.54
75551;BME280;65071;53.082;18.218;2023-09-18T08:26:47;101067.89;;;24.17;62.38
75551;BME280;65071;53.082;18.218;2023-09-18T08:29:13;101058.73;;;24.32;60.14
75551;BME280;65071;53.082;18.218;2023-09-18T08:31:39;101051.95;;;24.42;58.87
75551;BME280;65071;53.082;18.218;2023-09-18T08:34:05;101051.36;;;24.57;59.49
75551;BME280;65071;53.082;18.218;2023-09-18T08:37:05;101047.52;;;24.68;59.64
75551;BME280;65071;53.082;18.218;2023-09-18T08:42:04;101042.08;;;24.97;57.88
75551;BME280;65071;53.082;18.218;2023-09-18T08:44:31;101034.26;;;25.08;58.06
75551;BME280;65071;53.082;18.218;2023-09-18T08:46:58;101035.33;;;25.19;56.85
75551;BME280;65071;53.082;18.218;2023-09-18T08:49:26;101030.31;;;25.32;57.39
75551;BME280;65071;53.082;18.218;2023-09-18T08:51:54;101024.73;;;25.39;55.67
75551;BME280;65071;53.082;18.218;2023-09-18T08:54:21;101019.51;;;25.44;54.99
75551;BME280;65071;53.082;18.218;2023-09-18T08:56:50;101012.34;;;25.50;55.42
75551;BME280;65071;53.082;18.218;2023-09-18T08:59:17;101007.54;;;25.50;54.25
75551;BME280;65071;53.082;18.218;2023-09-18T09:01:43;101001.19;;;25.50;54.33
75551;BME280;65071;53.082;18.218;2023-09-18T09:04:10;100992.59;;;25.57;54.42
75551;BME280;65071;53.082;18.218;2023-09-18T09:06:36;100984.73;;;25.58;53.87
75551;BME280;65071;53.082;18.218;2023-09-18T09:09:03;100986.42;;;25.63;53.30
75551;BME280;65071;53.082;18.218;2023-09-18T09:11:29;100977.17;;;25.71;53.61
75551;BME280;65071;53.082;18.218;2023-09-18T09:14:09;100979.63;;;25.78;53.16
75551;BME280;65071;53.082;18.218;2023-09-18T09:16:47;100979.59;;;25.87;52.88
75551;BME280;65071;53.082;18.218;2023-09-18T09:19:18;100975.52;;;26.03;53.58
75551;BME280;65071;53.082;18.218;2023-09-18T09:21:53;100979.36;;;26.19;52.43
75551;BME280;65071;53.082;18.218;2023-09-18T09:24:36;100979.10;;;26.28;51.88
75551;BME280;65071;53.082;18.218;2023-09-18T09:27:03;100976.90;;;26.42;51.23
75551;BME280;65071;53.082;18.218;2023-09-18T09:29:30;100972.48;;;26.49;50.28
75551;BME280;65071;53.082;18.218;2023-09-18T09:32:17;100964.48;;;26.48;49.90
75551;BME280;65071;53.082;18.218;2023-09-18T09:34:44;100964.06;;;26.53;49.75
75551;BME280;65071;53.082;18.218;2023-09-18T09:37:12;100956.29;;;26.58;49.46
75551;BME280;65071;53.082;18.218;2023-09-18T09:39:50;100955.19;;;26.65;49.45
75551;BME280;65071;53.082;18.218;2023-09-18T09:42:20;100952.69;;;26.68;49.00
75551;BME280;65071;53.082;18.218;2023-09-18T09:45:03;100942.17;;;26.66;48.83
75551;BME280;65071;53.082;18.218;2023-09-18T09:47:34;100935.16;;;26.66;49.00
75551;BME280;65071;53.082;18.218;2023-09-18T09:50:09;100927.08;;;26.73;49.39
75551;BME280;65071;53.082;18.218;2023-09-18T09:52:47;100923.64;;;26.80;49.11
75551;BME280;65071;53.082;18.218;2023-09-18T09:57:47;100915.27;;;26.90;48.75
75551;BME280;65071;53.082;18.218;2023-09-18T10:00:15;100916.88;;;26.90;48.77
75551;BME280;65071;53.082;18.218;2023-09-18T10:02:56;100913.92;;;26.85;48.87
75551;BME280;65071;53.082;18.218;2023-09-18T10:05:30;100904.10;;;26.95;49.07
75551;BME280;65071;53.082;18.218;2023-09-18T10:07:59;100901.85;;;27.06;49.25
75551;BME280;65071;53.082;18.218;2023-09-18T10:10:32;100902.45;;;27.14;48.61
75551;BME280;65071;53.082;18.218;2023-09-18T10:13:03;100896.35;;;27.13;48.23
75551;BME280;65071;53.082;18.218;2023-09-18T10:15:33;100891.41;;;27.17;48.73
75551;BME280;65071;53.082;18.218;2023-09-18T10:18:07;100887.27;;;27.23;48.79
75551;BME280;65071;53.082;18.218;2023-09-18T10:20:39;100886.21;;;27.23;47.95
75551;BME280;65071;53.082;18.218;2023-09-18T10:23:34;100884.23;;;27.20;47.66
75551;BME280;65071;53.082;18.218;2023-09-18T10:26:06;100882.95;;;27.10;47.86
75551;BME280;65071;53.082;18.218;2023-09-18T10:28:33;100877.79;;;27.17;48.14
75551;BME280;65071;53.082;18.218;2023-09-18T10:31:00;100876.90;;;27.28;48.08
75551;BME280;65071;53.082;18.218;2023-09-18T10:33:27;100879.54;;;27.35;47.90
75551;BME280;65071;53.082;18.218;2023-09-18T10:35:55;100879.16;;;27.31;47.58
75551;BME280;65071;53.082;18.218;2023-09-18T10:38:24;100876.17;;;27.32;47.62
75551;BME280;65071;53.082;18.218;2023-09-18T10:40:52;100875.91;;;27.33;47.51
75551;BME280;65071;53.082;18.218;2023-09-18T10:43:19;100863.73;;;27.30;47.66
75551;BME280;65071;53.082;18.218;2023-09-18T10:45:46;100862.20;;;27.31;47.50
75551;BME280;65071;53.082;18.218;2023-09-18T10:48:14;100862.81;;;27.32;47.38
75551;BME280;65071;53.082;18.218;2023-09-18T10:50:42;100863.18;;;27.25;47.13
75551;BME280;65071;53.082;18.218;2023-09-18T10:53:09;100852.34;;;27.28;47.16
75551;BME280;65071;53.082;18.218;2023-09-18T10:55:35;100853.27;;;27.38;47.53
75551;BME280;65071;53.082;18.218;2023-09-18T10:58:03;100853.36;;;27.45;47.48
75551;BME280;65071;53.082;18.218;2023-09-18T11:00:32;100848.02;;;27.55;47.23
75551;BME280;65071;53.082;18.218;2023-09-18T11:03:11;100844.54;;;27.62;47.20
75551;BME280;65071;53.082;18.218;2023-09-18T11:05:38;100849.98;;;27.63;45.87
75551;BME280;65071;53.082;18.218;2023-09-18T11:10:58;100848.33;;;27.52;45.70
75551;BME280;65071;53.082;18.218;2023-09-18T11:13:29;100848.54;;;27.45;45.82
75551;BME280;65071;53.082;18.218;2023-09-18T11:19:07;100849.53;;;27.46;46.07
75551;BME280;65071;53.082;18.218;2023-09-18T11:21:38;100840.96;;;27.43;46.16
75551;BME280;65071;53.082;18.218;2023-09-18T11:24:38;100838.13;;;27.37;46.17
75551;BME280;65071;53.082;18.218;2023-09-18T11:27:04;100836.91;;;27.34;46.28
75551;BME280;65071;53.082;18.218;2023-09-18T11:29:36;100836.86;;;27.30;45.83
75551;BME280;65071;53.082;18.218;2023-09-18T11:32:02;100836.59;;;27.31;45.98
75551;BME280;65071;53.082;18.218;2023-09-18T11:34:30;100833.74;;;27.34;45.97
75551;BME280;65071;53.082;18.218;2023-09-18T11:37:20;100826.19;;;27.32;45.47
75551;BME280;65071;53.082;18.218;2023-09-18T11:39:47;100821.55;;;27.34;45.22
75551;BME280;65071;53.082;18.218;2023-09-18T11:42:17;100818.89;;;27.43;45.54
75551;BME280;65071;53.082;18.218;2023-09-18T11:44:45;100811.69;;;27.48;45.80
75551;BME280;65071;53.082;18.218;2023-09-18T11:47:19;100807.45;;;27.45;44.17
75551;BME280;65071;53.082;18.218;2023-09-18T11:49:47;100805.95;;;27.51;44.04
75551;BME280;65071;53.082;18.218;2023-09-18T11:52:25;100806.20;;;27.58;43.40
75551;BME280;65071;53.082;18.218;2023-09-18T11:54:55;100796.65;;;27.64;43.06
75551;BME280;65071;53.082;18.218;2023-09-18T11:57:21;100794.20;;;27.70;43.24
75551;BME280;65071;53.082;18.218;2023-09-18T11:59:48;100791.34;;;27.71;42.78
75551;BME280;65071;53.082;18.218;2023-09-18T12:02:36;100793.15;;;27.70;41.06
75551;BME280;65071;53.082;18.218;2023-09-18T12:05:09;100782.41;;;27.65;40.61
75551;BME280;65071;53.082;18.218;2023-09-18T12:07:35;100789.12;;;27.66;39.77
75551;BME280;65071;53.082;18.218;2023-09-18T12:10:05;100784.05;;;27.68;39.94
75551;BME280;65071;53.082;18.218;2023-09-18T12:12:31;100781.79;;;27.70;40.31
75551;BME280;65071;53.082;18.218;2023-09-18T12:14:57;100780.67;;;27.70;41.36
75551;BME280;65071;53.082;18.218;2023-09-18T12:17:24;100784.28;;;27.69;41.58
75551;BME280;65071;53.082;18.218;2023-09-18T12:19:52;100782.09;;;27.73;42.13
75551;BME280;65071;53.082;18.218;2023-09-18T12:24:49;100774.46;;;27.78;42.34
75551;BME280;65071;53.082;18.218;2023-09-18T12:27:15;100766.90;;;27.74;41.93
75551;BME280;65071;53.082;18.218;2023-09-18T12:29:42;100762.94;;;27.71;42.14
75551;BME280;65071;53.082;18.218;2023-09-18T12:32:09;100763.61;;;27.66;42.18
75551;BME280;65071;53.082;18.218;2023-09-18T12:34:40;100760.79;;;27.71;42.29
75551;BME280;65071;53.082;18.218;2023-09-18T12:37:08;100759.22;;;27.78;42.45
75551;BME280;65071;53.082;18.218;2023-09-18T12:39:37;100758.15;;;27.83;41.78
75551;BME280;65071;53.082;18.218;2023-09-18T12:42:04;100758.52;;;27.87;40.74
75551;BME280;65071;53.082;18.218;2023-09-18T12:44:31;100755.66;;;27.92;40.88
75551;BME280;65071;53.082;18.218;2023-09-18T12:46:57;100749.17;;;27.93;40.45
75551;BME280;65071;53.082;18.218;2023-09-18T12:49:29;100744.74;;;27.93;39.47
75551;BME280;65071;53.082;18.218;2023-09-18T12:51:59;100744.09;;;27.94;39.98
75551;BME280;65071;53.082;18.218;2023-09-18T12:54:40;100742.21;;;27.96;40.90
75551;BME280;65071;53.082;18.218;2023-09-18T12:57:08;100734.23;;;28.01;41.12
75551;BME280;65071;53.082;18.218;2023-09-18T12:59:35;100727.38;;;28.06;41.41
75551;BME280;65071;53.082;18.218;2023-09-18T13:02:02;100725.11;;;28.08;40.81
75551;BME280;65071;53.082;18.218;2023-09-18T13:04:32;100718.50;;;28.07;40.09
75551;BME280;65071;53.082;18.218;2023-09-18T13:07:07;100723.84;;;28.06;39.99
75551;BME280;65071;53.082;18.218;2023-09-18T13:09:34;100721.73;;;28.09;39.46